createdAt,value
2019-01-20T00:02:13.007Z,42.70
2019-01-20T00:07:42.296Z,49.40
2019-01-20T00:13:11.577Z,34.10
2019-01-20T00:18:40.884Z,34.83
2019-01-20T00:24:10.228Z,28.00
2019-01-20T00:29:39.529Z,36.40
2019-01-20T00:35:08.955Z,23.97
2019-01-20T00:40:38.238Z,32.50
2019-01-20T00:46:08.541Z,28.53
2019-01-20T00:51:37.851Z,27.97
2019-01-20T00:57:07.153Z,31.47
2019-01-20T01:02:36.440Z,26.60
2019-01-20T01:08:06.161Z,27.03
2019-01-20T01:13:35.433Z,21.47
2019-01-20T01:19:04.794Z,22.93
2019-01-20T01:24:34.073Z,35.10
2019-01-20T01:30:05.014Z,19.00
2019-01-20T01:35:34.306Z,20.57
2019-01-20T01:41:03.981Z,18.77
2019-01-20T01:46:33.274Z,21.20
2019-01-20T01:52:02.573Z,21.67
2019-01-20T01:57:31.856Z,23.80
2019-01-20T02:03:01.144Z,20.23
2019-01-20T02:08:30.450Z,17.37
2019-01-20T02:13:59.720Z,20.37
2019-01-20T02:19:29.101Z,27.53
2019-01-20T02:24:58.358Z,21.00
2019-01-20T02:30:29.289Z,17.40
2019-01-20T02:35:58.598Z,16.10
2019-01-20T02:41:27.880Z,21.13
2019-01-20T02:47:16.497Z,17.87
2019-01-20T02:52:45.786Z,11.70
2019-01-20T02:58:15.472Z,15.43
2019-01-20T03:03:45.101Z,14.70
2019-01-20T03:09:14.566Z,15.37
2019-01-20T03:14:43.843Z,16.57
2019-01-20T03:20:20.079Z,17.40
2019-01-20T03:25:49.378Z,16.87
2019-01-20T03:31:18.672Z,16.73
2019-01-20T03:36:47.945Z,13.57
2019-01-20T03:42:17.227Z,16.77
2019-01-20T03:47:46.554Z,17.10
2019-01-20T03:53:22.652Z,16.27
2019-01-20T03:58:51.983Z,14.57
2019-01-20T04:04:21.334Z,15.87
2019-01-20T04:09:50.627Z,15.77
2019-01-20T04:15:19.986Z,19.40
2019-01-20T04:20:49.259Z,18.90
2019-01-20T04:26:18.592Z,15.30
2019-01-20T04:31:47.954Z,17.00
2019-01-20T04:37:18.201Z,10.97
2019-01-20T04:42:47.553Z,12.50
2019-01-20T04:48:16.842Z,16.40
2019-01-20T04:53:47.367Z,12.90
2019-01-20T04:59:16.731Z,9.60
2019-01-20T05:04:47.204Z,12.50
2019-01-20T05:10:18.589Z,12.53
2019-01-20T05:15:47.869Z,11.30
2019-01-20T05:21:17.215Z,17.23
2019-01-20T05:26:46.501Z,8.53
2019-01-20T05:32:15.772Z,9.00
2019-01-20T05:37:45.140Z,10.67
2019-01-20T05:43:14.415Z,12.50
2019-01-20T05:48:43.686Z,5.97
2019-01-20T05:54:13.042Z,13.40
2019-01-20T05:59:42.615Z,5.80
2019-01-20T06:05:12.090Z,11.40
2019-01-20T06:10:41.434Z,7.73
2019-01-20T06:16:10.773Z,10.47
2019-01-20T06:21:40.046Z,11.23
2019-01-20T06:27:09.324Z,9.40
2019-01-20T06:32:38.610Z,6.10
2019-01-20T06:38:07.880Z,7.13
2019-01-20T06:43:37.162Z,11.97
2019-01-20T06:49:06.464Z,6.73
2019-01-20T06:54:35.737Z,6.27
2019-01-20T07:00:15.111Z,10.90
2019-01-20T07:05:44.393Z,7.10
2019-01-20T07:11:13.687Z,11.60
2019-01-20T07:16:42.992Z,11.67
2019-01-20T07:22:12.252Z,8.93
2019-01-20T07:27:41.715Z,9.07
2019-01-20T07:33:11.081Z,17.93
2019-01-20T07:38:40.358Z,9.90
2019-01-20T07:44:10.647Z,17.37
2019-01-20T07:49:39.954Z,13.13
2019-01-20T07:55:10.432Z,11.27
2019-01-20T08:00:39.800Z,11.40
2019-01-20T08:06:09.068Z,14.30
2019-01-20T08:11:38.359Z,12.93
2019-01-20T08:17:07.639Z,11.27
2019-01-20T08:22:37.135Z,12.73
2019-01-20T08:28:06.552Z,9.37
2019-01-20T08:33:35.841Z,9.30
2019-01-20T08:39:07.834Z,10.00
2019-01-20T08:44:37.215Z,12.17
2019-01-20T08:50:10.563Z,16.73
2019-01-20T08:55:39.882Z,11.23
2019-01-20T09:01:09.160Z,10.40
2019-01-20T09:06:38.437Z,9.30
2019-01-20T09:12:07.744Z,10.80
2019-01-20T09:17:37.027Z,10.93
2019-01-20T09:23:06.590Z,10.30
2019-01-20T09:28:35.880Z,9.53
2019-01-20T09:34:12.519Z,9.93
2019-01-20T09:39:39.279Z,12.23
2019-01-20T09:45:24.010Z,9.03
2019-01-20T09:50:53.301Z,8.20
2019-01-20T09:56:25.258Z,7.77
2019-01-20T10:01:54.540Z,8.80
2019-01-20T10:07:23.892Z,8.03
2019-01-20T10:12:56.347Z,9.93
2019-01-20T10:18:25.630Z,10.63
2019-01-20T10:23:55.068Z,21.20
2019-01-20T10:29:34.664Z,14.33
2019-01-20T10:35:05.564Z,8.27
2019-01-20T10:40:35.034Z,12.50
2019-01-20T10:46:09.388Z,8.80
2019-01-20T10:51:39.108Z,11.73
2019-01-20T10:57:14.424Z,15.73
2019-01-20T11:02:43.911Z,11.53
2019-01-20T11:08:13.389Z,12.20
2019-01-20T11:13:42.966Z,11.83
2019-01-20T11:19:12.527Z,12.43
2019-01-20T11:24:42.419Z,12.63
2019-01-20T11:30:14.220Z,13.37
2019-01-20T11:35:43.954Z,9.17
2019-01-20T11:41:14.244Z,9.60
2019-01-20T11:46:44.658Z,11.50
2019-01-20T11:52:16.663Z,17.47
2019-01-20T11:57:49.745Z,22.70
2019-01-20T12:03:27.321Z,18.97
2019-01-20T12:08:56.857Z,16.90
2019-01-20T12:14:26.350Z,16.77
2019-01-20T12:19:55.707Z,16.23
2019-01-20T12:25:26.561Z,17.70
2019-01-20T12:30:56.145Z,19.33
2019-01-20T12:36:27.129Z,24.80
2019-01-20T12:41:57.214Z,23.40
2019-01-20T12:47:26.714Z,16.77
2019-01-20T12:52:56.130Z,18.53
2019-01-20T12:58:33.716Z,19.20
2019-01-20T13:04:03.373Z,21.93
2019-01-20T13:09:32.810Z,21.43
2019-01-20T13:15:02.219Z,19.97
2019-01-20T13:20:31.770Z,20.10
2019-01-20T13:26:01.189Z,22.13
2019-01-20T13:31:30.537Z,23.80
2019-01-20T13:37:01.426Z,25.97
2019-01-20T13:42:30.985Z,32.20
2019-01-20T13:48:00.365Z,18.97
2019-01-20T13:53:29.843Z,19.10
2019-01-20T13:58:59.201Z,21.80
2019-01-20T14:04:28.561Z,19.10
2019-01-20T14:09:58.997Z,22.50
2019-01-20T14:15:29.438Z,20.43
2019-01-20T14:20:58.918Z,20.00
2019-01-20T14:26:28.306Z,21.43
2019-01-20T14:31:57.662Z,20.67
2019-01-20T14:37:27.156Z,22.93
2019-01-20T14:42:56.607Z,22.63
2019-01-20T14:48:26.109Z,22.50
2019-01-20T14:53:55.464Z,19.63
2019-01-20T14:59:25.888Z,19.47
2019-01-20T15:04:55.660Z,20.47
2019-01-20T15:10:25.259Z,21.73
2019-01-20T15:15:54.600Z,25.23
2019-01-20T15:21:24.575Z,21.07
2019-01-20T15:26:54.234Z,19.33
2019-01-20T15:32:23.864Z,19.27
2019-01-20T15:37:53.558Z,24.97
2019-01-20T15:43:23.220Z,27.57
2019-01-20T15:48:53.939Z,26.10
2019-01-20T15:54:23.586Z,25.20
2019-01-20T15:59:56.579Z,25.10
2019-01-20T16:05:28.428Z,26.40
2019-01-20T16:10:57.879Z,33.30
2019-01-20T16:16:28.402Z,30.70
2019-01-20T16:21:59.000Z,33.80
2019-01-20T16:27:29.198Z,31.47
2019-01-20T16:33:04.809Z,30.27
2019-01-20T16:38:34.217Z,29.63
2019-01-20T16:44:14.873Z,30.17
2019-01-20T16:49:49.650Z,33.73
2019-01-20T16:55:19.559Z,29.17
2019-01-20T17:00:50.513Z,33.03
2019-01-20T17:06:28.265Z,30.60
2019-01-20T17:12:01.028Z,32.00
2019-01-20T17:17:31.555Z,32.00
2019-01-20T17:23:03.467Z,25.37
2019-01-20T17:28:38.229Z,30.33
2019-01-20T17:34:09.730Z,32.97
2019-01-20T17:39:39.254Z,45.97
2019-01-20T17:45:14.362Z,38.70
2019-01-20T17:50:44.589Z,44.20
2019-01-20T17:56:14.450Z,35.87
2019-01-20T18:01:44.171Z,42.00
2019-01-20T18:07:13.651Z,46.07
2019-01-20T18:18:23.717Z,42.53
2019-01-20T18:23:53.224Z,47.30
2019-01-20T18:29:22.851Z,45.73
2019-01-20T18:34:52.267Z,44.53
2019-01-20T18:40:24.000Z,48.73
2019-01-20T18:46:24.778Z,46.37
2019-01-20T18:51:54.339Z,46.67
2019-01-20T18:57:28.828Z,52.43
2019-01-20T19:03:17.611Z,51.37
2019-01-20T19:08:47.005Z,47.23
2019-01-20T19:14:16.512Z,49.70
2019-01-20T19:19:45.791Z,50.27
2019-01-20T19:25:15.361Z,49.97
2019-01-20T19:30:44.597Z,53.07
2019-01-20T19:36:13.994Z,53.63
2019-01-20T19:41:43.279Z,57.40
2019-01-20T19:47:23.176Z,53.97
2019-01-20T19:52:49.656Z,49.37
2019-01-20T19:58:18.978Z,52.10
2019-01-20T20:03:48.305Z,50.87
2019-01-20T20:14:59.672Z,51.93
2019-01-20T20:20:30.170Z,54.73
2019-01-20T20:26:01.455Z,58.07
2019-01-20T20:31:30.831Z,55.30
2019-01-20T20:37:02.154Z,52.87
2019-01-20T20:42:31.532Z,54.53
2019-01-20T20:48:00.819Z,66.93
2019-01-20T20:53:30.099Z,54.10
2019-01-20T20:59:00.447Z,65.70
2019-01-20T21:04:29.744Z,55.03
2019-01-20T21:09:59.037Z,52.83
2019-01-20T21:15:28.329Z,57.33
2019-01-20T21:20:57.722Z,58.13
2019-01-20T21:26:27.009Z,54.70
2019-01-20T21:31:56.283Z,48.80
2019-01-20T21:37:26.538Z,52.00
2019-01-20T21:42:55.819Z,53.73
2019-01-20T21:48:26.073Z,57.83
2019-01-20T21:53:55.416Z,58.90
2019-01-20T21:59:25.630Z,68.90
2019-01-20T22:04:55.879Z,57.83
2019-01-20T22:10:25.609Z,60.13
2019-01-20T22:15:55.078Z,56.47
2019-01-20T22:21:25.552Z,52.83
2019-01-20T22:26:57.974Z,53.00
2019-01-20T22:32:34.064Z,55.00
2019-01-20T22:38:03.360Z,59.60
2019-01-20T22:43:32.690Z,54.53
2019-01-20T22:49:01.929Z,55.03
2019-01-20T22:54:31.209Z,56.37
2019-01-20T23:00:00.533Z,62.23
2019-01-20T23:05:30.098Z,55.27
2019-01-20T23:10:59.406Z,57.87
2019-01-20T23:16:28.811Z,58.43
2019-01-20T23:21:58.115Z,49.67
2019-01-20T23:27:27.412Z,51.00
2019-01-20T23:32:56.763Z,55.70
2019-01-20T23:38:26.062Z,56.10
2019-01-20T23:43:55.432Z,58.97
2019-01-20T23:49:24.797Z,58.83
2019-01-20T23:54:54.190Z,70.03
